Time;durP1;ratioP1;P1;durP2;ratioP2;P2;SDS_P1;SDS_P2;PMS_P1;PMS_P2;Temp;Humidity;BMP_temperature;BMP_pressure;BME280_temperature;BME280_humidity;BME280_pressure;Samples;Min_cycle;Max_cycle;Signal;HPM_P1;HPM_P2
2023/10/10 00:02:19;;;;;;;;;24.33;19.67;;;;;14.67;100.00;102083.63;5034147;28;45498;-76
2023/10/10 00:04:49;;;;;;;;;22.33;20.00;;;;;14.64;100.00;102073.09;5036516;28;45400;-76
2023/10/10 00:07:15;;;;;;;;;21.67;20.33;;;;;14.64;100.00;102081.09;5035612;28;45340;-76
2023/10/10 00:09:44;;;;;;;;;22.67;21.67;;;;;14.62;100.00;102082.97;5041698;28;45288;-76
2023/10/10 00:12:36;;;;;;;;;27.00;22.00;;;;;14.58;100.00;102079.56;5033966;28;46593;-76
2023/10/10 00:15:13;;;;;;;;;16.67;16.00;;;;;14.59;100.00;102091.94;5033863;28;45379;-76
2023/10/10 00:17:40;;;;;;;;;24.00;22.67;;;;;14.45;100.00;102072.19;5041011;28;45549;-75
2023/10/10 00:20:21;;;;;;;;;25.67;24.00;;;;;14.35;100.00;102057.53;5038139;28;45328;-75
2023/10/10 00:22:48;;;;;;;;;25.00;22.67;;;;;14.50;100.00;102087.00;5038946;28;45691;-75
2023/10/10 00:25:23;;;;;;;;;29.00;26.00;;;;;14.39;100.00;102060.00;5037532;28;45451;-75
2023/10/10 00:27:55;;;;;;;;;24.33;22.00;;;;;14.51;100.00;102095.88;5038935;28;45328;-75
2023/10/10 00:30:22;;;;;;;;;22.67;20.33;;;;;14.49;100.00;102090.63;5044538;28;45383;-74
2023/10/10 00:32:50;;;;;;;;;20.67;16.67;;;;;14.48;100.00;102085.34;5029665;28;45483;-75
2023/10/10 00:35:17;;;;;;;;;28.33;24.67;;;;;14.48;100.00;102090.69;5039061;28;45529;-75
2023/10/10 00:37:44;;;;;;;;;20.00;19.67;;;;;14.36;100.00;102072.56;5039041;28;45583;-75
2023/10/10 00:40:15;;;;;;;;;22.33;18.00;;;;;14.42;100.00;102074.97;5043710;28;45780;-75
2023/10/10 00:42:43;;;;;;;;;16.33;16.33;;;;;14.43;100.00;102085.53;5044541;28;45420;-75
2023/10/10 00:45:09;;;;;;;;;21.00;17.67;;;;;14.41;100.00;102073.22;5029907;28;45271;-75
2023/10/10 00:47:40;;;;;;;;;22.33;20.33;;;;;14.32;100.00;102060.28;5038594;28;45334;-75
2023/10/10 00:50:15;;;;;;;;;22.00;21.00;;;;;14.22;100.00;102050.97;5034023;28;45398;-75
2023/10/10 00:52:44;;;;;;;;;18.33;17.67;;;;;14.43;100.00;102090.03;5037161;28;45509;-75
2023/10/10 00:55:10;;;;;;;;;22.00;19.00;;;;;14.33;100.00;102065.56;5050814;28;45613;-74
2023/10/10 00:57:36;;;;;;;;;21.67;19.00;;;;;14.40;100.00;102087.47;5037891;28;45855;-75
2023/10/10 01:00:10;;;;;;;;;19.33;19.33;;;;;14.34;100.00;102067.31;5047721;28;45474;-75
2023/10/10 01:02:37;;;;;;;;;19.67;18.00;;;;;14.34;100.00;102066.44;5037158;28;46092;-76
2023/10/10 01:05:24;;;;;;;;;23.67;20.33;;;;;14.34;100.00;102064.66;5030992;28;45372;-75
2023/10/10 01:07:53;;;;;;;;;19.33;18.33;;;;;14.33;100.00;102073.56;5029904;28;45514;-75
2023/10/10 01:10:19;;;;;;;;;22.33;19.67;;;;;14.19;100.00;102053.75;5039977;28;45296;-76
2023/10/10 01:12:46;;;;;;;;;21.67;19.00;;;;;14.15;100.00;102047.69;5027362;28;46506;-75
2023/10/10 01:15:26;;;;;;;;;19.33;17.33;;;;;14.22;100.00;102053.63;5026373;28;45554;-75
2023/10/10 01:17:54;;;;;;;;;17.67;16.33;;;;;14.27;100.00;102076.44;5039668;28;45461;-75
2023/10/10 01:20:45;;;;;;;;;20.67;19.67;;;;;14.18;100.00;102055.56;5036134;28;45565;-77
2023/10/10 01:23:15;;;;;;;;;24.00;18.00;;;;;14.14;100.00;102053.06;5036296;28;46031;-76
2023/10/10 01:25:52;;;;;;;;;16.67;16.67;;;;;14.21;100.00;102062.53;5034770;28;45490;-75
2023/10/10 01:33:28;;;;;;;;;21.33;18.00;;;;;14.15;100.00;102068.97;5032261;28;45568;-76
2023/10/10 01:35:55;;;;;;;;;19.00;17.33;;;;;14.08;100.00;102055.06;5029860;28;45776;-75
2023/10/10 01:38:27;;;;;;;;;16.67;16.67;;;;;14.13;100.00;102057.56;5029998;28;45567;-76
2023/10/10 01:40:55;;;;;;;;;19.00;16.33;;;;;14.09;100.00;102059.47;5042249;28;45407;-76
2023/10/10 01:43:21;;;;;;;;;17.33;15.33;;;;;14.10;100.00;102061.19;5030617;28;46264;-75
2023/10/10 01:46:00;;;;;;;;;17.00;17.00;;;;;14.10;100.00;102053.19;5038277;28;45320;-75
2023/10/10 01:48:32;;;;;;;;;18.33;17.00;;;;;14.00;100.00;102040.38;5024651;28;45333;-75
2023/10/10 01:50:57;;;;;;;;;21.00;17.33;;;;;14.07;100.00;102045.34;5038801;28;45281;-75
2023/10/10 01:53:23;;;;;;;;;17.00;17.00;;;;;14.05;100.00;102049.88;5051160;28;45381;-75
2023/10/10 01:55:50;;;;;;;;;21.00;18.00;;;;;13.95;100.00;102029.91;5034012;28;45481;-75
2023/10/10 01:58:19;;;;;;;;;19.33;17.67;;;;;14.00;100.00;102038.56;5037716;28;45343;-75
2023/10/10 02:00:46;;;;;;;;;21.00;18.00;;;;;13.90;100.00;102021.28;5041203;28;45732;-75
2023/10/10 02:03:12;;;;;;;;;21.67;21.00;;;;;13.89;100.00;102023.97;5036643;28;45942;-75
2023/10/10 02:08:09;;;;;;;;;18.00;13.33;;;;;13.99;100.00;102043.94;5035457;28;45397;-75
2023/10/10 02:10:44;;;;;;;;;17.67;17.33;;;;;13.96;100.00;102038.75;5046536;28;45307;-74
2023/10/10 02:13:11;;;;;;;;;23.00;20.33;;;;;13.98;100.00;102036.88;5028314;28;45543;-75
2023/10/10 02:15:40;;;;;;;;;17.00;17.00;;;;;13.80;100.00;102003.97;5041677;28;44780;-75
2023/10/10 02:18:12;;;;;;;;;20.67;18.33;;;;;13.96;100.00;102038.75;5051713;28;45357;-75
2023/10/10 02:23:31;;;;;;;;;16.33;14.00;;;;;13.93;100.00;102030.91;5028541;28;45533;-75
2023/10/10 02:26:03;;;;;;;;;16.67;16.00;;;;;13.90;100.00;102031.03;5041256;28;45388;-74
2023/10/10 02:28:49;;;;;;;;;19.00;18.33;;;;;13.90;100.00;102031.03;5036993;28;45505;-75
2023/10/10 02:31:18;;;;;;;;;20.33;16.33;;;;;13.89;100.00;102031.97;5038925;28;45312;-75
2023/10/10 02:33:51;;;;;;;;;18.00;16.67;;;;;13.87;100.00;102026.69;5033297;28;46528;-74
2023/10/10 02:36:29;;;;;;;;;21.33;20.00;;;;;13.85;100.00;102028.56;5046474;28;45414;-74
2023/10/10 02:38:56;;;;;;;;;20.67;16.67;;;;;13.84;100.00;102028.63;5036970;28;45436;-75
2023/10/10 02:46:40;;;;;;;;;20.00;19.00;;;;;13.76;100.00;102031.59;5036435;28;45356;-76
2023/10/10 02:49:12;;;;;;;;;20.67;19.67;;;;;13.65;100.00;102001.91;5041987;28;45425;-75
2023/10/10 02:51:43;;;;;;;;;20.67;17.33;;;;;13.74;100.00;102030.81;5028999;28;45415;-75
2023/10/10 02:54:20;;;;;;;;;19.33;16.67;;;;;13.72;100.00;102021.13;5035030;28;46233;-74
2023/10/10 02:56:48;;;;;;;;;22.33;21.67;;;;;13.66;100.00;102016.94;5050733;28;45426;-75
2023/10/10 02:59:17;;;;;;;;;23.33;21.00;;;;;13.64;100.00;102010.84;5021167;28;45277;-74
2023/10/10 03:01:57;;;;;;;;;16.67;16.33;;;;;13.64;100.00;102008.19;5020498;28;45471;-75
2023/10/10 03:04:52;;;;;;;;;21.67;19.33;;;;;13.56;100.00;101996.97;5037592;28;45575;-75
2023/10/10 03:07:21;;;;;;;;;19.33;19.33;;;;;13.70;100.00;102015.91;5033458;28;45458;-75
2023/10/10 03:12:37;;;;;;;;;19.00;18.33;;;;;13.60;100.00;101998.59;5041653;28;45552;-74
2023/10/10 03:15:12;;;;;;;;;16.67;16.67;;;;;13.67;100.00;102015.16;5035609;28;47038;-74
2023/10/10 03:17:48;;;;;;;;;16.67;16.67;;;;;13.62;100.00;102003.81;5024640;28;45311;-75
2023/10/10 03:28:21;;;;;;;;;21.33;19.33;;;;;13.43;100.00;101978.00;5040186;28;45388;-75
2023/10/10 03:30:51;;;;;;;;;9.33;7.00;;;;;13.60;100.00;102014.53;5046433;28;45403;-74
2023/10/10 03:33:37;;;;;;;;;21.67;20.67;;;;;13.56;100.00;102011.13;5042630;28;45487;-75
2023/10/10 05:25:22;;;;;;;;;26.33;23.67;;;;;12.96;100.00;101961.25;5027638;28;45794;-76
2023/10/10 05:27:51;;;;;;;;;25.00;23.00;;;;;13.05;100.00;101975.97;5026136;28;45258;-76
2023/10/10 05:30:23;;;;;;;;;30.00;26.00;;;;;13.05;100.00;101971.50;5038695;28;45432;-75
2023/10/10 05:33:00;;;;;;;;;27.67;23.00;;;;;12.87;100.00;101940.34;5036972;28;45225;-75
2023/10/10 05:35:27;;;;;;;;;26.00;24.00;;;;;12.99;100.00;101962.91;5050801;28;45523;-75
2023/10/10 05:37:53;;;;;;;;;23.67;21.00;;;;;13.05;100.00;101963.53;5035695;28;45493;-74
2023/10/10 05:40:20;;;;;;;;;22.00;20.00;;;;;12.97;100.00;101955.00;5034439;28;45423;-74
2023/10/10 05:42:45;;;;;;;;;26.33;21.67;;;;;12.83;100.00;101924.59;5037098;28;45509;-75
2023/10/10 05:45:13;;;;;;;;;22.33;21.00;;;;;12.97;100.00;101952.34;5037710;28;45363;-74
2023/10/10 05:47:39;;;;;;;;;21.67;18.33;;;;;12.95;100.00;101956.00;5038212;28;45410;-76
2023/10/10 05:50:06;;;;;;;;;21.67;21.67;;;;;13.03;100.00;101967.19;5038302;28;45295;-75
2023/10/10 05:52:33;;;;;;;;;21.33;19.33;;;;;13.03;100.00;101976.00;5039124;28;45479;-75
2023/10/10 05:54:58;;;;;;;;;24.33;22.67;;;;;12.96;100.00;101957.72;5033590;28;46969;-74
2023/10/10 05:57:23;;;;;;;;;26.75;24.00;;;;;12.90;100.00;101963.25;5038059;28;45554;-74
2023/10/10 05:59:49;;;;;;;;;26.33;21.00;;;;;12.90;100.00;101966.78;5036918;28;45445;-74
2023/10/10 06:02:16;;;;;;;;;22.33;18.67;;;;;13.03;100.00;101972.50;5038014;28;45339;-74
2023/10/10 06:04:43;;;;;;;;;29.00;21.67;;;;;12.89;100.00;101964.22;5035433;28;46982;-74
2023/10/10 06:07:10;;;;;;;;;23.67;20.33;;;;;12.96;100.00;101969.19;5036477;28;45464;-75
2023/10/10 06:09:39;;;;;;;;;23.33;22.67;;;;;12.96;100.00;101981.59;5057153;28;45550;-75
2023/10/10 06:12:05;;;;;;;;;30.67;23.67;;;;;12.93;100.00;101964.00;5035792;28;45453;-75
2023/10/10 06:14:31;;;;;;;;;21.33;19.67;;;;;13.04;100.00;101975.09;5023759;28;46302;-74
2023/10/10 06:16:57;;;;;;;;;29.25;24.25;;;;;12.68;100.00;101939.34;5034941;28;45406;-74
2023/10/10 06:19:22;;;;;;;;;24.00;22.33;;;;;12.80;100.00;101937.97;5042253;28;46161;-74
2023/10/10 06:21:47;;;;;;;;;25.00;19.33;;;;;13.13;100.00;101987.19;5033152;28;45281;-75
2023/10/10 06:24:13;;;;;;;;;30.00;26.67;;;;;13.14;100.00;101978.28;5032694;28;45495;-75
2023/10/10 06:26:45;;;;;;;;;25.00;23.00;;;;;13.05;100.00;101958.22;5035215;28;48104;-75
2023/10/10 06:29:12;;;;;;;;;26.00;22.67;;;;;13.23;100.00;101982.38;5022444;28;45421;-75
2023/10/10 06:31:42;;;;;;;;;26.75;24.75;;;;;13.09;100.00;101955.50;5029428;28;45621;-74
2023/10/10 06:34:19;;;;;;;;;23.33;23.33;;;;;13.26;100.00;101974.28;5026066;28;45528;-75
2023/10/10 06:36:47;;;;;;;;;25.67;23.67;;;;;13.36;100.00;101976.50;5048901;28;45366;-74
2023/10/10 06:41:46;;;;;;;;;26.75;24.50;;;;;13.50;100.00;101974.19;5032677;28;45305;-74
2023/10/10 06:44:14;;;;;;;;;36.50;24.75;;;;;13.51;100.00;101965.25;5028725;28;47210;-74
2023/10/10 06:46:41;;;;;;;;;26.00;25.50;;;;;13.52;100.00;101960.81;5028014;28;45321;-74
2023/10/10 06:49:07;;;;;;;;;28.25;27.00;;;;;13.73;100.00;101978.56;5026893;28;45622;-74
2023/10/10 06:51:42;;;;;;;;;34.75;30.25;;;;;13.81;100.00;101976.41;5031661;28;45461;-75
2023/10/10 06:54:19;;;;;;;;;27.50;25.75;;;;;13.77;100.00;101958.88;5031348;28;47213;-74
2023/10/10 06:57:04;;;;;;;;;33.25;27.25;;;;;14.00;100.00;101984.50;5027135;28;45370;-74
2023/10/10 06:59:30;;;;;;;;;34.25;30.50;;;;;14.02;100.00;101964.88;5036435;28;45338;-74
2023/10/10 07:01:59;;;;;;;;;34.67;30.00;;;;;14.20;100.00;101979.19;5030677;28;45494;-75
2023/10/10 07:04:27;;;;;;;;;27.00;27.00;;;;;14.21;100.00;101961.41;5030660;28;46274;-75
2023/10/10 07:06:54;;;;;;;;;35.25;30.00;;;;;14.34;100.00;101975.94;5036217;28;45509;-74
2023/10/10 07:09:29;;;;;;;;;34.00;31.50;;;;;14.46;100.00;101981.59;5035311;28;45599;-75
2023/10/10 07:11:56;;;;;;;;;31.75;30.00;;;;;14.63;100.00;101985.31;5041334;28;45359;-75
2023/10/10 07:14:25;;;;;;;;;33.67;27.33;;;;;14.70;100.00;101984.09;5038960;28;47652;-74
2023/10/10 07:16:56;;;;;;;;;33.33;27.00;;;;;14.77;100.00;101983.75;5039247;28;45569;-74
2023/10/10 07:19:29;;;;;;;;;39.25;31.00;;;;;14.92;100.00;102000.84;5036908;28;45370;-74
2023/10/10 07:21:55;;;;;;;;;35.33;29.00;;;;;14.59;100.00;101912.72;5029291;28;45392;-74
2023/10/10 07:24:25;;;;;;;;;34.25;31.75;;;;;15.09;100.00;101996.44;5032596;28;46167;-75
2023/10/10 07:26:58;;;;;;;;;40.75;32.00;;;;;15.17;100.00;101997.88;5036981;28;45414;-75
2023/10/10 07:29:29;;;;;;;;;36.00;32.50;;;;;15.13;100.00;101967.84;5030361;28;45542;-75
2023/10/10 07:32:04;;;;;;;;;33.75;31.50;;;;;15.27;100.00;101975.19;5037792;28;45415;-74
2023/10/10 07:34:41;;;;;;;;;32.75;30.25;;;;;15.33;100.00;101970.44;5038976;28;46997;-75
2023/10/10 07:37:08;;;;;;;;;35.75;30.25;;;;;15.28;100.00;101948.44;5020788;28;45652;-75
2023/10/10 07:39:36;;;;;;;;;39.75;32.00;;;;;15.39;100.00;101951.47;5035411;28;45286;-75
2023/10/10 07:42:03;;;;;;;;;36.50;32.25;;;;;15.62;100.00;101975.22;5031394;28;45372;-75
2023/10/10 07:44:32;;;;;;;;;36.25;31.25;;;;;15.70;100.00;101979.34;5037794;28;45438;-75
2023/10/10 07:49:34;;;;;;;;;41.50;32.00;;;;;16.01;100.00;102003.53;5032795;28;45415;-75
2023/10/10 07:52:03;;;;;;;;;37.50;30.00;;;;;16.11;100.00;102002.97;5035703;28;45411;-75
2023/10/10 07:54:43;;;;;;;;;39.75;34.50;;;;;16.07;100.00;101982.72;5031637;28;46018;-74
2023/10/10 07:57:17;;;;;;;;;45.75;33.75;;;;;16.25;100.00;102001.41;5023745;28;45276;-75
2023/10/10 07:59:42;;;;;;;;;51.00;38.00;;;;;16.43;100.00;102013.78;5044518;28;45313;-74
2023/10/10 08:02:24;;;;;;;;;48.25;37.25;;;;;16.40;100.00;101992.59;5040756;28;45414;-75
2023/10/10 08:04:51;;;;;;;;;50.00;38.00;;;;;16.60;100.00;102019.16;5049864;28;47360;-75
2023/10/10 08:07:20;;;;;;;;;44.50;35.50;;;;;16.69;100.00;102024.00;5022984;28;45434;-75
2023/10/10 08:09:46;;;;;;;;;43.75;36.00;;;;;16.71;100.00;102002.56;5040875;28;46070;-75
2023/10/10 08:12:13;;;;;;;;;48.00;34.25;;;;;16.73;100.00;101998.84;5042216;28;45416;-75
2023/10/10 08:14:39;;;;;;;;;49.00;38.75;;;;;16.86;100.00;102010.59;5039816;28;46292;-74
2023/10/10 08:17:18;;;;;;;;;56.50;37.50;;;;;16.90;100.00;101997.94;5041880;28;45313;-75
2023/10/10 08:19:51;;;;;;;;;51.75;37.25;;;;;16.97;100.00;101996.66;5033475;28;45398;-75
2023/10/10 08:22:18;;;;;;;;;42.50;29.25;;;;;17.04;100.00;101993.59;5031594;28;45447;-74
2023/10/10 08:24:44;;;;;;;;;50.25;39.00;;;;;17.06;100.00;101981.00;5031267;28;45410;-76
2023/10/10 08:27:11;;;;;;;;;50.50;37.50;;;;;17.16;100.00;101984.00;5033099;28;50539;-75
2023/10/10 08:29:38;;;;;;;;;52.75;39.75;;;;;17.29;100.00;101992.19;5027110;28;45273;-75
2023/10/10 08:32:05;;;;;;;;;46.25;37.25;;;;;17.34;100.00;101995.50;5030819;28;45564;-75
2023/10/10 08:34:31;;;;;;;;;49.75;38.50;;;;;17.43;100.00;101994.97;5020624;28;46001;-74
2023/10/10 08:37:03;;;;;;;;;50.50;36.75;;;;;17.53;100.00;102004.19;5050085;28;45473;-75
2023/10/10 08:39:35;;;;;;;;;49.50;41.00;;;;;17.59;100.00;101993.19;5030394;28;45384;-75
2023/10/10 08:42:05;;;;;;;;;49.75;35.00;;;;;17.67;100.00;101983.75;5035234;28;45321;-74
2023/10/10 08:44:37;;;;;;;;;45.25;38.25;;;;;17.75;100.00;101985.13;5027863;28;45489;-75
2023/10/10 08:47:05;;;;;;;;;51.25;39.50;;;;;17.83;100.00;101986.41;5032428;28;45448;-75
2023/10/10 08:49:31;;;;;;;;;42.25;36.25;;;;;17.90;100.00;101985.09;5023743;28;45495;-75
2023/10/10 08:52:01;;;;;;;;;45.00;36.67;;;;;18.01;100.00;101996.03;5023805;28;45613;-75
2023/10/10 08:54:27;;;;;;;;;52.75;40.00;;;;;18.02;100.00;101999.56;5030686;28;45307;-74
2023/10/10 08:57:03;;;;;;;;;43.25;35.00;;;;;18.12;100.00;101998.06;5025061;28;45440;-74
2023/10/10 08:59:31;;;;;;;;;51.25;39.25;;;;;18.10;100.00;101974.06;5037508;28;45303;-75
2023/10/10 09:02:07;;;;;;;;;48.25;39.25;;;;;18.22;100.00;101985.88;5023270;28;45542;-76
2023/10/10 09:04:33;;;;;;;;;49.00;40.25;;;;;18.24;100.00;101973.22;5024092;28;46148;-74
2023/10/10 09:07:00;;;;;;;;;52.75;40.25;;;;;18.36;100.00;101980.50;5033301;28;45408;-74
2023/10/10 09:09:37;;;;;;;;;46.50;37.00;;;;;18.54;100.00;101991.97;5034323;28;45276;-74
2023/10/10 09:12:12;;;;;;;;;44.00;37.00;;;;;18.65;100.00;101994.88;5019138;28;45472;-75
2023/10/10 09:14:39;;;;;;;;;48.25;40.50;;;;;18.77;100.00;101990.53;5036958;28;45376;-74
2023/10/10 09:17:10;;;;;;;;;33.00;24.50;;;;;18.80;100.00;101969.78;5035607;28;45392;-75
2023/10/10 09:19:47;;;;;;;;;46.00;37.50;;;;;18.91;100.00;101961.94;5022658;28;45486;-75
2023/10/10 09:22:42;;;;;;;;;55.75;41.25;;;;;18.92;96.45;101947.53;5023776;28;45662;-74
2023/10/10 09:25:26;;;;;;;;;51.25;39.00;;;;;19.28;100.00;101973.81;5038569;28;45511;-75
2023/10/10 09:28:10;;;;;;;;;48.25;38.50;;;;;19.29;94.81;101959.44;5036321;28;45269;-74
2023/10/10 09:30:49;;;;;;;;;56.00;40.25;;;;;19.49;99.39;101960.84;5032464;28;45628;-75
2023/10/10 09:33:27;;;;;;;;;48.25;37.00;;;;;19.53;92.61;101941.78;5025305;28;45529;-74
2023/10/10 09:36:09;;;;;;;;;46.67;38.67;;;;;19.65;93.34;101940.09;5030866;28;46643;-75
2023/10/10 09:38:48;;;;;;;;;46.67;37.67;;;;;19.72;89.73;101938.72;5026538;28;45434;-74
2023/10/10 09:49:52;;;;;;;;;36.67;29.33;;;;;20.32;86.15;101979.34;5026034;28;45297;-75
2023/10/10 09:55:38;;;;;;;;;37.33;30.00;;;;;20.40;89.65;101963.56;5018765;28;45581;-74
2023/10/10 10:00:45;;;;;;;;;38.33;30.33;;;;;20.68;85.72;101974.09;5044189;28;45414;-76
2023/10/10 10:09:21;;;;;;;;;38.33;31.67;;;;;20.97;82.05;101973.84;5035674;28;45983;-75
2023/10/10 10:12:13;;;;;;;;;36.00;28.00;;;;;21.04;83.88;101970.59;5037626;28;45498;-75
2023/10/10 10:15:15;;;;;;;;;33.33;30.00;;;;;21.11;78.16;101963.84;5039015;28;45367;-75
2023/10/10 10:21:29;;;;;;;;;27.00;23.00;;;;;21.28;81.18;101960.78;5032554;28;45902;-75
2023/10/10 10:24:15;;;;;;;;;28.00;22.00;;;;;21.32;79.72;101955.16;5018478;28;45329;-75
2023/10/10 10:26:44;;;;;;;;;24.67;18.00;;;;;21.43;78.74;101952.56;5027312;28;45395;-76
2023/10/10 10:29:28;;;;;;;;;13.00;11.33;;;;;21.50;80.78;101959.19;5020372;28;45525;-76
2023/10/10 10:31:59;;;;;;;;;18.00;17.33;;;;;21.61;77.82;101953.84;5032514;28;45692;-75
2023/10/10 10:34:35;;;;;;;;;17.67;14.33;;;;;21.66;75.08;101957.06;5030301;28;45439;-76
2023/10/10 10:37:20;;;;;;;;;17.67;16.67;;;;;21.73;75.10;101947.53;5032082;28;45685;-75
2023/10/10 10:40:23;;;;;;;;;16.00;16.00;;;;;21.83;75.34;101952.09;5024279;28;45456;-75
2023/10/10 10:42:53;;;;;;;;;15.33;15.33;;;;;21.78;73.86;101931.91;5024576;28;45535;-78
2023/10/10 10:45:38;;;;;;;;;14.33;14.33;;;;;21.85;75.37;101951.16;5035742;28;45621;-75
2023/10/10 10:48:07;;;;;;;;;14.00;10.67;;;;;21.81;73.86;101945.13;5034583;28;45410;-76
2023/10/10 10:50:40;;;;;;;;;10.00;8.67;;;;;21.79;72.58;101947.94;5027385;28;45562;-76
2023/10/10 10:53:21;;;;;;;;;9.33;9.33;;;;;21.73;75.05;101934.06;5024247;28;46097;-76
2023/10/10 11:01:28;;;;;;;;;11.33;10.33;;;;;21.96;72.62;101927.81;5059351;28;45637;-76
2023/10/10 11:03:58;;;;;;;;;16.00;11.67;;;;;21.66;71.39;101879.81;5043585;28;45370;-76
2023/10/10 11:06:28;;;;;;;;;11.67;10.67;;;;;22.16;72.81;101931.66;5021263;28;45457;-76
2023/10/10 11:09:08;;;;;;;;;11.67;11.67;;;;;22.04;73.43;101895.75;5031164;28;45258;-76
2023/10/10 11:14:09;;;;;;;;;11.00;9.67;;;;;22.31;77.78;101899.00;5033052;28;46232;-76
2023/10/10 11:16:38;;;;;;;;;17.33;12.00;;;;;22.35;74.46;101887.97;5034192;28;45391;-77
2023/10/10 11:21:54;;;;;;;;;12.00;10.33;;;;;22.78;68.05;101914.09;5019168;28;45643;-77
2023/10/10 11:24:25;;;;;;;;;10.00;8.33;;;;;22.97;69.74;101907.22;5024571;28;45461;-78
2023/10/10 11:30:00;;;;;;;;;14.67;10.00;;;;;23.07;66.63;101865.84;5021294;28;45482;-77
2023/10/10 11:32:36;;;;;;;;;10.33;9.33;;;;;22.99;67.71;101838.66;5031047;28;45443;-77
2023/10/10 11:38:00;;;;;;;;;12.67;11.33;;;;;23.74;70.41;101896.19;5024128;28;45451;-78
2023/10/10 11:43:03;;;;;;;;;8.67;6.33;;;;;24.00;62.24;101885.84;5045540;28;45443;-78
2023/10/10 11:45:30;;;;;;;;;8.67;7.00;;;;;24.07;62.21;101884.31;5021969;28;46520;-78
2023/10/10 11:48:00;;;;;;;;;11.33;7.67;;;;;24.11;60.45;101869.56;5036065;28;45373;-77
2023/10/10 11:50:56;;;;;;;;;12.33;8.00;;;;;24.25;59.63;101865.66;5027012;28;45285;-78
2023/10/10 11:53:46;;;;;;;;;9.67;9.00;;;;;23.76;58.06;101791.53;5035772;28;45590;-78
2023/10/10 11:57:04;;;;;;;;;8.00;6.67;;;;;24.06;57.21;101811.47;5052196;28;47199;-78
2023/10/10 11:59:46;;;;;;;;;8.67;5.33;;;;;24.43;57.42;101864.06;5038478;28;45463;-78
2023/10/10 12:03:05;;;;;;;;;;;;;;;;;;;;;
2023/10/10 12:05:50;;;;;;;;;9.00;9.00;;;;;24.02;57.71;101777.63;5029238;28;45208;-78
2023/10/10 12:08:53;;;;;;;;;8.33;7.00;;;;;24.24;57.36;101812.59;5012892;28;46783;-78
2023/10/10 12:12:32;;;;;;;;;;;;;;;;;;;;;
2023/10/10 12:15:00;;;;;;;;;8.33;6.67;;;;;23.95;56.78;101773.72;5036516;28;45554;-78
2023/10/10 12:17:28;;;;;;;;;8.67;7.33;;;;;24.11;53.25;101779.50;5037785;28;45463;-78
2023/10/10 12:19:53;;;;;;;;;7.00;6.00;;;;;24.54;55.29;101819.81;5037514;28;47844;-78
2023/10/10 12:22:19;;;;;;;;;8.00;6.67;;;;;24.35;55.96;101791.72;5036624;28;45344;-78
2023/10/10 12:24:47;;;;;;;;;6.00;4.67;;;;;24.56;53.96;101793.47;5032521;28;45426;-78
2023/10/10 12:27:15;;;;;;;;;7.00;7.00;;;;;24.65;53.04;101798.91;5041781;28;45483;-78
2023/10/10 12:29:41;;;;;;;;;5.67;5.67;;;;;24.78;55.33;101809.47;5038096;28;46108;-78
2023/10/10 12:32:15;;;;;;;;;8.00;7.00;;;;;24.78;53.33;101804.94;5034859;28;45407;-78
2023/10/10 12:34:42;;;;;;;;;9.67;7.00;;;;;24.87;52.88;101808.66;5031997;28;45587;-78
2023/10/10 12:37:08;;;;;;;;;8.67;8.33;;;;;24.87;55.51;101800.53;5041249;28;45484;-78
2023/10/10 12:39:33;;;;;;;;;6.67;6.67;;;;;24.82;52.76;101792.88;5036795;28;45282;-78
2023/10/10 12:41:59;;;;;;;;;10.00;7.00;;;;;24.83;55.03;101785.59;5036773;28;45286;-78
2023/10/10 12:44:25;;;;;;;;;6.33;5.00;;;;;24.95;53.02;101794.44;5024956;28;45424;-78
2023/10/10 12:46:59;;;;;;;;;9.00;7.67;;;;;25.04;54.33;101793.59;5024519;28;45483;-78
2023/10/10 12:49:36;;;;;;;;;6.67;6.67;;;;;25.06;55.00;101783.50;5032727;28;45996;-77
2023/10/10 12:52:11;;;;;;;;;8.33;8.00;;;;;24.91;53.38;101769.50;5029579;28;45424;-77
2023/10/10 12:54:37;;;;;;;;;12.00;8.00;;;;;25.09;49.13;101775.06;5047090;28;45320;-78
2023/10/10 12:57:06;;;;;;;;;8.00;7.00;;;;;25.06;51.88;101759.97;5031437;28;45795;-77
2023/10/10 12:59:32;;;;;;;;;3.33;3.33;;;;;24.98;51.03;101740.88;5039716;28;46376;-78
2023/10/10 13:02:00;;;;;;;;;9.67;6.67;;;;;25.17;49.30;101767.94;5036945;28;45322;-78
2023/10/10 13:04:29;;;;;;;;;7.00;7.00;;;;;25.04;46.85;101732.19;5041331;28;45328;-78
2023/10/10 13:06:55;;;;;;;;;8.00;6.00;;;;;25.39;49.14;101778.47;5027284;28;45359;-77
2023/10/10 13:09:22;;;;;;;;;6.33;5.67;;;;;25.12;50.41;101715.22;5040032;28;46109;-78
2023/10/10 13:11:48;;;;;;;;;6.00;6.00;;;;;25.42;48.02;101749.41;5038558;28;45375;-78
2023/10/10 13:14:19;;;;;;;;;5.67;5.67;;;;;25.30;48.29;101722.47;5028336;28;45364;-78
2023/10/10 13:19:11;;;;;;;;;7.00;6.00;;;;;25.70;47.71;101756.63;5033009;28;45400;-77
2023/10/10 13:21:37;;;;;;;;;7.00;5.00;;;;;25.64;47.49;101739.13;5038635;28;45424;-78
2023/10/10 13:24:03;;;;;;;;;6.33;6.33;;;;;25.78;48.69;101756.75;5038930;28;45405;-77
2023/10/10 13:26:30;;;;;;;;;4.67;4.67;;;;;25.78;46.91;101756.75;5022197;28;46766;-78
2023/10/10 13:28:57;;;;;;;;;6.67;5.00;;;;;25.70;44.16;101724.09;5029103;28;46305;-78
2023/10/10 13:31:29;;;;;;;;;6.67;5.67;;;;;26.02;46.52;101751.66;5032763;28;45319;-78
2023/10/10 13:33:58;;;;;;;;;9.33;6.33;;;;;26.07;47.29;101753.94;5039355;28;45272;-77
2023/10/10 13:36:24;;;;;;;;;7.00;6.67;;;;;25.97;45.58;101729.59;5035047;28;45559;-78
2023/10/10 13:38:51;;;;;;;;;8.67;5.33;;;;;25.74;46.29;101688.44;5032412;28;45523;-77
2023/10/10 13:41:19;;;;;;;;;6.33;5.33;;;;;26.09;45.85;101735.66;5028191;28;45416;-77
2023/10/10 13:43:48;;;;;;;;;8.33;8.33;;;;;26.14;47.05;101742.34;5023600;28;45379;-78
2023/10/10 13:46:15;;;;;;;;;7.67;5.33;;;;;26.09;48.62;101739.22;5019026;28;45487;-78
2023/10/10 13:48:46;;;;;;;;;7.00;7.00;;;;;26.10;46.87;101735.50;5020322;28;45559;-77
2023/10/10 13:51:13;;;;;;;;;8.00;6.00;;;;;26.13;43.76;101745.19;5027884;28;45279;-78
2023/10/10 13:53:43;;;;;;;;;7.67;6.67;;;;;26.17;45.75;101741.22;5032797;28;45348;-77
2023/10/10 13:56:10;;;;;;;;;8.33;7.33;;;;;26.28;45.46;101739.16;5031611;28;45258;-77
2023/10/10 13:58:46;;;;;;;;;5.67;5.67;;;;;26.25;46.82;101731.31;5032019;28;47360;-77
2023/10/10 14:03:45;;;;;;;;;6.33;5.33;;;;;26.24;43.93;101724.19;5036305;28;45417;-77
2023/10/10 14:06:21;;;;;;;;;7.00;4.00;;;;;26.12;44.43;101700.09;5024927;28;45257;-77
2023/10/10 14:08:49;;;;;;;;;8.00;7.00;;;;;26.27;47.08;101726.63;5019910;28;45792;-78
2023/10/10 14:11:20;;;;;;;;;7.67;6.00;;;;;26.45;45.09;101742.06;5024861;28;45534;-77
2023/10/10 14:13:48;;;;;;;;;7.00;5.33;;;;;26.53;45.75;101736.72;5037336;28;45313;-77
2023/10/10 14:16:14;;;;;;;;;6.67;6.67;;;;;26.46;47.68;101717.50;5030268;28;45704;-77
2023/10/10 14:18:42;;;;;;;;;7.00;7.00;;;;;26.52;46.62;101735.03;5025355;28;45473;-77
2023/10/10 14:21:10;;;;;;;;;8.33;6.00;;;;;26.42;44.46;101733.22;5038453;28;45365;-77
2023/10/10 14:23:36;;;;;;;;;5.00;5.00;;;;;26.45;46.22;101729.34;5035139;28;45335;-77
2023/10/10 14:26:48;;;;;;;;;7.33;6.00;;;;;26.30;45.68;101714.59;5037821;28;45771;-77
2023/10/10 14:28:51;;;;;;;;;5.33;5.00;;;;;26.26;45.50;101719.47;5032073;28;45664;-77
2023/10/10 14:31:22;;;;;;;;;6.00;6.00;;;;;26.32;43.97;101732.44;5021637;28;45399;-77
2023/10/10 14:33:48;;;;;;;;;7.00;6.00;;;;;26.16;45.52;101707.81;5031101;28;45348;-77
2023/10/10 14:36:14;;;;;;;;;6.00;5.33;;;;;26.19;45.69;101712.94;5021187;28;45427;-77
2023/10/10 14:38:46;;;;;;;;;8.00;8.00;;;;;26.01;44.80;101684.03;5036648;28;45420;-78
2023/10/10 14:41:19;;;;;;;;;4.00;2.67;;;;;25.91;43.90;101686.81;5034137;28;45625;-77
2023/10/10 14:43:49;;;;;;;;;8.00;7.00;;;;;26.08;40.13;101704.13;5039561;28;45481;-78